Time;durP1;ratioP1;P1;durP2;ratioP2;P2;SDS_P1;SDS_P2;PMS_P1;PMS_P2;Temp;Humidity;BMP_temperature;BMP_pressure;BME280_temperature;BME280_humidity;BME280_pressure;Samples;Min_cycle;Max_cycle;Signal;HPM_P1;HPM_P2
2020/12/17 00:00:15;;;;;;;11.65;6.10;;;;;;;;;;4979502;28;20042;-79
2020/12/17 00:02:41;;;;;;;11.88;6.07;;;;;;;;;;4996586;28;20050;-78
2020/12/17 00:05:07;;;;;;;13.02;7.00;;;;;;;;;;4978439;28;20050;-78
2020/12/17 00:07:36;;;;;;;11.57;6.13;;;;;;;;;;4994995;28;20455;-79
2020/12/17 00:10:03;;;;;;;12.55;6.38;;;;;;;;;;4978807;28;20054;-78
2020/12/17 00:12:32;;;;;;;13.40;6.97;;;;;;;;;;4995582;28;20038;-78
2020/12/17 00:14:58;;;;;;;11.13;5.93;;;;;;;;;;4978031;28;20061;-79
2020/12/17 00:17:25;;;;;;;11.98;6.68;;;;;;;;;;4978788;28;20386;-78
2020/12/17 00:19:51;;;;;;;15.93;7.72;;;;;;;;;;4978430;28;20038;-78
2020/12/17 00:22:17;;;;;;;15.88;7.53;;;;;;;;;;4978064;28;20042;-78
2020/12/17 00:24:46;;;;;;;13.55;7.03;;;;;;;;;;4978875;28;20061;-78
2020/12/17 00:27:12;;;;;;;14.82;7.28;;;;;;;;;;4977151;28;20050;-78
2020/12/17 00:29:39;;;;;;;14.10;6.88;;;;;;;;;;4995067;28;20085;-78
2020/12/17 00:32:05;;;;;;;14.05;7.55;;;;;;;;;;4994405;28;20038;-77
2020/12/17 00:34:33;;;;;;;12.95;6.80;;;;;;;;;;4976509;28;20046;-77
2020/12/17 00:36:59;;;;;;;13.65;6.97;;;;;;;;;;4993353;28;20667;-77
2020/12/17 00:39:26;;;;;;;14.10;7.68;;;;;;;;;;4992714;28;20418;-78
2020/12/17 00:41:53;;;;;;;13.68;6.15;;;;;;;;;;4959479;28;20054;-77
2020/12/17 00:44:19;;;;;;;13.10;6.78;;;;;;;;;;4958779;28;20534;-78
2020/12/17 00:46:48;;;;;;;12.85;6.78;;;;;;;;;;4974800;28;20100;-78
2020/12/17 00:49:16;;;;;;;12.80;6.45;;;;;;;;;;4975538;28;20138;-78
2020/12/17 00:51:43;;;;;;;13.60;6.50;;;;;;;;;;4975315;28;20498;-78
2020/12/17 00:54:09;;;;;;;13.35;6.65;;;;;;;;;;4974789;28;20046;-78
2020/12/17 00:56:35;;;;;;;10.50;6.20;;;;;;;;;;4992202;28;20042;-78
2020/12/17 00:59:02;;;;;;;12.93;6.28;;;;;;;;;;4992311;28;20046;-79
2020/12/17 01:01:29;;;;;;;13.65;6.38;;;;;;;;;;4975029;28;20522;-78
2020/12/17 01:03:57;;;;;;;14.43;6.88;;;;;;;;;;4974886;28;20065;-79
2020/12/17 01:06:24;;;;;;;13.63;6.78;;;;;;;;;;4992063;28;20046;-78
2020/12/17 01:08:52;;;;;;;13.07;6.88;;;;;;;;;;4990772;28;20065;-79
2020/12/17 01:11:25;;;;;;;18.00;7.75;;;;;;;;;;4976233;28;20097;-78
2020/12/17 01:13:53;;;;;;;14.05;7.43;;;;;;;;;;4993553;28;20038;-78
2020/12/17 01:16:20;;;;;;;14.60;7.13;;;;;;;;;;4993581;28;20038;-79
2020/12/17 01:18:46;;;;;;;17.02;7.57;;;;;;;;;;4991654;28;20054;-77
2020/12/17 01:21:14;;;;;;;18.58;7.75;;;;;;;;;;4991868;28;20418;-78
2020/12/17 01:23:40;;;;;;;16.45;7.72;;;;;;;;;;4984743;28;20677;-77
2020/12/17 01:26:08;;;;;;;15.32;7.72;;;;;;;;;;4956852;28;20042;-79
2020/12/17 01:28:35;;;;;;;15.20;8.00;;;;;;;;;;4973074;28;20419;-78
2020/12/17 01:31:11;;;;;;;14.20;7.63;;;;;;;;;;4958443;28;20475;-77
2020/12/17 01:33:38;;;;;;;15.15;7.25;;;;;;;;;;4974000;28;20171;-77
2020/12/17 01:36:09;;;;;;;15.45;7.60;;;;;;;;;;4957682;28;20066;-78
2020/12/17 01:38:37;;;;;;;17.98;7.65;;;;;;;;;;4993062;28;20038;-78
2020/12/17 01:41:03;;;;;;;17.73;8.05;;;;;;;;;;4978134;28;20079;-79
2020/12/17 01:43:40;;;;;;;16.58;8.65;;;;;;;;;;4941739;28;20047;-78
2020/12/17 01:46:07;;;;;;;15.90;8.10;;;;;;;;;;4974297;28;20054;-78
2020/12/17 01:48:33;;;;;;;18.77;8.48;;;;;;;;;;4972745;28;20149;-77
2020/12/17 01:51:00;;;;;;;17.67;7.85;;;;;;;;;;4956286;28;20054;-78
2020/12/17 01:53:26;;;;;;;20.13;8.27;;;;;;;;;;4955409;28;20043;-79
2020/12/17 01:55:55;;;;;;;15.82;8.02;;;;;;;;;;4973590;28;20466;-77
2020/12/17 01:58:23;;;;;;;17.02;8.18;;;;;;;;;;4956416;28;20043;-78
2020/12/17 02:00:52;;;;;;;18.58;7.53;;;;;;;;;;4974725;28;20043;-78
2020/12/17 02:03:21;;;;;;;16.77;7.32;;;;;;;;;;4973816;28;20058;-78
2020/12/17 02:05:48;;;;;;;16.60;7.45;;;;;;;;;;4941231;28;20043;-78
2020/12/17 02:08:17;;;;;;;14.32;7.55;;;;;;;;;;4956140;28;20082;-78
2020/12/17 02:10:44;;;;;;;16.00;7.70;;;;;;;;;;4940999;28;20047;-78
2020/12/17 02:13:10;;;;;;;16.25;7.70;;;;;;;;;;4955797;28;20482;-78
2020/12/17 02:15:36;;;;;;;13.40;7.35;;;;;;;;;;4956956;28;20053;-78
2020/12/17 02:18:08;;;;;;;16.55;6.65;;;;;;;;;;4956729;28;20069;-78
2020/12/17 02:20:34;;;;;;;14.82;7.38;;;;;;;;;;4956942;28;20046;-79
2020/12/17 02:23:02;;;;;;;14.30;6.63;;;;;;;;;;4956526;28;20039;-79
2020/12/17 02:25:28;;;;;;;11.75;6.25;;;;;;;;;;4956075;28;20057;-78
2020/12/17 02:27:54;;;;;;;14.35;6.68;;;;;;;;;;4961813;28;20042;-78
2020/12/17 02:30:20;;;;;;;12.75;6.63;;;;;;;;;;4976236;28;20073;-79
2020/12/17 02:32:47;;;;;;;14.90;6.88;;;;;;;;;;4975668;28;20109;-79
2020/12/17 02:35:13;;;;;;;15.90;7.18;;;;;;;;;;4993471;28;20046;-79
2020/12/17 02:37:55;;;;;;;15.30;7.32;;;;;;;;;;4977550;28;20046;-78
2020/12/17 02:40:23;;;;;;;14.40;7.13;;;;;;;;;;4993156;28;20070;-79
2020/12/17 02:42:49;;;;;;;15.95;7.93;;;;;;;;;;4976115;28;20073;-78
2020/12/17 02:45:16;;;;;;;13.57;7.60;;;;;;;;;;4976745;28;20410;-79
2020/12/17 02:47:42;;;;;;;17.27;7.40;;;;;;;;;;4959551;28;20442;-79
2020/12/17 02:50:10;;;;;;;15.70;7.80;;;;;;;;;;4976263;28;20046;-79
2020/12/17 02:52:36;;;;;;;15.27;6.93;;;;;;;;;;4993158;28;20045;-77
2020/12/17 02:55:03;;;;;;;12.40;7.07;;;;;;;;;;4994089;28;20057;-78
2020/12/17 02:57:31;;;;;;;14.68;7.07;;;;;;;;;;4994294;28;20034;-78
2020/12/17 02:59:57;;;;;;;14.35;7.22;;;;;;;;;;4960163;28;20046;-77
2020/12/17 03:02:23;;;;;;;14.90;7.07;;;;;;;;;;4961188;28;20665;-78
2020/12/17 03:04:49;;;;;;;14.02;6.90;;;;;;;;;;4977136;28;20042;-77
2020/12/17 03:07:15;;;;;;;15.25;6.72;;;;;;;;;;4993937;28;20510;-77
2020/12/17 03:09:41;;;;;;;13.20;7.38;;;;;;;;;;4976289;28;20521;-79
2020/12/17 03:12:07;;;;;;;14.02;7.25;;;;;;;;;;4976329;28;20137;-78
2020/12/17 03:14:36;;;;;;;16.92;7.20;;;;;;;;;;4960330;28;20069;-80
2020/12/17 03:17:03;;;;;;;13.68;6.65;;;;;;;;;;4960352;28;20061;-78
2020/12/17 03:19:30;;;;;;;13.75;6.65;;;;;;;;;;4977340;28;20203;-77
2020/12/17 03:21:56;;;;;;;16.80;7.35;;;;;;;;;;4996127;28;20043;-79
2020/12/17 03:24:23;;;;;;;17.00;7.72;;;;;;;;;;4996498;28;20054;-78
2020/12/17 03:26:49;;;;;;;15.77;7.32;;;;;;;;;;5016989;28;20038;-80
2020/12/17 03:29:16;;;;;;;15.73;7.82;;;;;;;;;;4991183;28;20053;-77
2020/12/17 03:31:42;;;;;;;14.60;7.15;;;;;;;;;;4978190;28;20050;-78
2020/12/17 03:34:08;;;;;;;16.40;7.30;;;;;;;;;;4977354;28;20136;-77
2020/12/17 03:36:35;;;;;;;16.67;7.50;;;;;;;;;;4976873;28;20129;-78
2020/12/17 03:39:02;;;;;;;14.10;7.40;;;;;;;;;;4994417;28;20415;-78
2020/12/17 03:41:28;;;;;;;15.15;7.50;;;;;;;;;;4994438;28;20042;-77
2020/12/17 03:43:55;;;;;;;17.42;8.07;;;;;;;;;;4992973;28;20494;-77
2020/12/17 03:46:21;;;;;;;15.60;7.80;;;;;;;;;;4976777;28;20062;-77
2020/12/17 03:48:47;;;;;;;17.33;7.68;;;;;;;;;;4993122;28;20061;-77
2020/12/17 03:51:14;;;;;;;16.67;7.82;;;;;;;;;;4945023;28;20054;-79
2020/12/17 03:53:40;;;;;;;18.27;8.60;;;;;;;;;;4996969;28;20049;-79
2020/12/17 03:56:06;;;;;;;16.90;7.97;;;;;;;;;;4994933;28;20074;-76
2020/12/17 03:58:33;;;;;;;16.88;7.93;;;;;;;;;;4993876;28;20510;-76
2020/12/17 04:00:59;;;;;;;18.02;8.13;;;;;;;;;;4976602;28;20524;-77
2020/12/17 04:03:25;;;;;;;17.45;8.02;;;;;;;;;;4976505;28;20141;-77
2020/12/17 04:05:53;;;;;;;19.83;8.55;;;;;;;;;;4993572;28;20421;-76
2020/12/17 04:08:23;;;;;;;19.27;8.25;;;;;;;;;;4975722;28;20057;-77
2020/12/17 04:10:49;;;;;;;17.67;8.18;;;;;;;;;;4943799;28;20078;-78
2020/12/17 04:13:17;;;;;;;16.17;7.75;;;;;;;;;;4975662;28;20053;-78
2020/12/17 04:15:43;;;;;;;18.45;9.13;;;;;;;;;;4976166;28;20044;-77
2020/12/17 04:18:09;;;;;;;18.40;8.48;;;;;;;;;;4960423;28;20049;-78
2020/12/17 04:20:36;;;;;;;17.67;7.93;;;;;;;;;;4976662;28;20050;-77
2020/12/17 04:23:02;;;;;;;16.20;8.02;;;;;;;;;;4975642;28;20050;-78
2020/12/17 04:25:28;;;;;;;18.30;7.93;;;;;;;;;;4959033;28;20113;-77
2020/12/17 04:27:55;;;;;;;18.13;8.63;;;;;;;;;;4974661;28;20160;-77
2020/12/17 04:30:21;;;;;;;16.73;8.60;;;;;;;;;;4959295;28;20145;-78
2020/12/17 04:32:47;;;;;;;17.70;8.63;;;;;;;;;;4974848;28;20615;-77
2020/12/17 04:35:15;;;;;;;17.77;7.95;;;;;;;;;;4991258;28;20049;-78
2020/12/17 04:37:41;;;;;;;22.15;8.88;;;;;;;;;;4958367;28;20145;-77
2020/12/17 04:40:08;;;;;;;20.08;9.20;;;;;;;;;;4964797;28;20073;-77
2020/12/17 04:42:34;;;;;;;19.08;8.45;;;;;;;;;;4960157;28;20050;-78
2020/12/17 04:45:01;;;;;;;17.58;8.40;;;;;;;;;;4959148;28;20481;-77
2020/12/17 04:47:29;;;;;;;16.27;7.93;;;;;;;;;;4958983;28;20104;-79
2020/12/17 04:50:02;;;;;;;18.25;8.93;;;;;;;;;;4964957;28;20043;-78
2020/12/17 04:52:29;;;;;;;17.02;7.80;;;;;;;;;;4972824;28;20066;-78
2020/12/17 04:54:56;;;;;;;19.33;8.50;;;;;;;;;;4971701;28;20077;-78
2020/12/17 04:57:25;;;;;;;16.33;7.80;;;;;;;;;;4976928;28;20062;-79
2020/12/17 04:59:52;;;;;;;15.10;7.28;;;;;;;;;;4978786;28;20034;-79
2020/12/17 05:02:19;;;;;;;15.95;7.60;;;;;;;;;;4941437;28;20118;-78
2020/12/17 05:04:46;;;;;;;15.68;7.50;;;;;;;;;;4956502;28;20403;-81
2020/12/17 05:07:16;;;;;;;15.07;7.38;;;;;;;;;;4956406;28;20445;-78
2020/12/17 05:09:44;;;;;;;15.15;6.85;;;;;;;;;;4956155;28;20050;-77
2020/12/17 05:12:10;;;;;;;15.38;7.70;;;;;;;;;;4955969;28;20053;-79
2020/12/17 05:14:37;;;;;;;15.48;8.02;;;;;;;;;;4946184;28;20034;-79
2020/12/17 05:17:04;;;;;;;14.63;7.40;;;;;;;;;;4975009;28;20070;-79
2020/12/17 05:19:30;;;;;;;13.50;7.20;;;;;;;;;;4975357;28;20170;-78
2020/12/17 05:22:00;;;;;;;12.90;6.60;;;;;;;;;;4974731;28;20046;-78
2020/12/17 05:24:27;;;;;;;15.45;6.53;;;;;;;;;;4982621;28;20077;-80
2020/12/17 05:26:54;;;;;;;12.88;6.68;;;;;;;;;;4990922;28;20137;-78
2020/12/17 05:29:20;;;;;;;12.32;7.00;;;;;;;;;;4988949;28;20038;-79
2020/12/17 05:31:48;;;;;;;15.18;6.68;;;;;;;;;;5004278;28;20066;-78
2020/12/17 05:34:15;;;;;;;15.15;7.57;;;;;;;;;;4958564;28;20057;-78
2020/12/17 05:36:42;;;;;;;13.43;7.07;;;;;;;;;;4973764;28;20517;-79
2020/12/17 05:39:11;;;;;;;15.25;7.38;;;;;;;;;;4973977;28;20050;-79
2020/12/17 05:41:37;;;;;;;13.30;6.95;;;;;;;;;;4991898;28;20433;-78
2020/12/17 05:44:23;;;;;;;12.68;6.95;;;;;;;;;;4991067;28;20046;-79
2020/12/17 05:46:49;;;;;;;11.98;7.20;;;;;;;;;;4983118;28;20518;-79
2020/12/17 05:49:26;;;;;;;11.40;6.30;;;;;;;;;;4977195;28;20068;-79
2020/12/17 05:52:14;;;;;;;13.38;7.30;;;;;;;;;;4973783;28;20046;-78
2020/12/17 05:54:41;;;;;;;15.32;7.90;;;;;;;;;;4975241;28;20074;-78
2020/12/17 05:57:16;;;;;;;19.45;7.43;;;;;;;;;;4972561;28;20046;-78
2020/12/17 05:59:42;;;;;;;;;;;;;;;;;;4986050;28;20071;-78
2020/12/17 06:02:19;;;;;;;11.63;6.57;;;;;;;;;;4978042;28;19945;-78
2020/12/17 06:04:46;;;;;;;12.30;6.85;;;;;;;;;;4968353;28;20039;-79
2020/12/17 06:07:14;;;;;;;14.02;6.55;;;;;;;;;;4936624;28;20043;-77
2020/12/17 06:09:46;;;;;;;13.90;6.90;;;;;;;;;;4981058;28;20034;-79
2020/12/17 06:12:18;;;;;;;11.25;6.05;;;;;;;;;;4989719;28;20058;-79
2020/12/17 06:14:46;;;;;;;14.45;6.32;;;;;;;;;;4992542;28;20058;-79
2020/12/17 06:17:14;;;;;;;14.52;6.40;;;;;;;;;;4974696;28;20430;-79
2020/12/17 06:19:42;;;;;;;10.43;6.00;;;;;;;;;;4990520;28;20058;-79
2020/12/17 06:22:09;;;;;;;12.85;6.80;;;;;;;;;;4989952;28;20053;-79
2020/12/17 06:24:37;;;;;;;14.07;6.60;;;;;;;;;;4990463;28;20052;-78
2020/12/17 06:27:07;;;;;;;15.00;6.45;;;;;;;;;;4990080;28;20042;-78
2020/12/17 06:29:39;;;;;;;11.95;6.15;;;;;;;;;;4989659;28;20046;-77
2020/12/17 06:32:15;;;;;;;14.00;6.75;;;;;;;;;;4989607;28;20568;-79
2020/12/17 06:34:42;;;;;;;14.05;6.80;;;;;;;;;;4990845;28;20540;-79
2020/12/17 06:37:10;;;;;;;13.68;7.05;;;;;;;;;;4993496;28;20050;-79
2020/12/17 06:39:36;;;;;;;15.68;7.05;;;;;;;;;;4981787;28;20092;-78
2020/12/17 06:42:02;;;;;;;14.70;7.00;;;;;;;;;;4977549;28;20510;-77
2020/12/17 06:44:29;;;;;;;15.43;7.18;;;;;;;;;;4976877;28;20042;-78
2020/12/17 06:46:57;;;;;;;15.02;6.63;;;;;;;;;;4993113;28;20409;-79
2020/12/17 06:49:25;;;;;;;12.52;6.55;;;;;;;;;;4974308;28;20038;-79
2020/12/17 06:52:00;;;;;;;18.30;7.10;;;;;;;;;;4963126;28;20042;-77
2020/12/17 06:54:26;;;;;;;;;;;;;;;;;;4981142;28;20034;-79
2020/12/17 06:56:52;;;;;;;;;;;;;;;;;;4982287;28;20301;-78
2020/12/17 06:59:18;;;;;;;;;;;;;;;;;;4983423;28;19937;-78
2020/12/17 07:01:46;;;;;;;13.10;6.07;;;;;;;;;;4983199;28;20471;-78
2020/12/17 07:04:33;;;;;;;13.18;6.32;;;;;;;;;;4984166;28;20050;-77
2020/12/17 07:07:16;;;;;;;15.35;6.82;;;;;;;;;;4993173;28;20275;-79
2020/12/17 07:09:47;;;;;;;14.88;6.63;;;;;;;;;;4991757;28;20034;-78
2020/12/17 07:12:34;;;;;;;19.90;8.02;;;;;;;;;;4989992;28;20058;-80
2020/12/17 07:15:00;;;;;;;19.85;9.45;;;;;;;;;;4995195;28;20049;-78
2020/12/17 07:17:27;;;;;;;15.50;8.07;;;;;;;;;;4986691;28;20062;-79
2020/12/17 07:19:54;;;;;;;18.13;7.95;;;;;;;;;;4985278;28;20257;-79
2020/12/17 07:22:21;;;;;;;14.05;7.30;;;;;;;;;;4993611;28;20050;-79
2020/12/17 07:24:56;;;;;;;16.73;6.38;;;;;;;;;;4954670;28;20039;-79
2020/12/17 07:27:24;;;;;;;14.93;6.57;;;;;;;;;;4956430;28;20043;-78
2020/12/17 07:30:00;;;;;;;17.02;6.38;;;;;;;;;;4975968;28;20038;-79
2020/12/17 07:32:28;;;;;;;11.75;6.20;;;;;;;;;;4956970;28;20047;-79
2020/12/17 07:34:55;;;;;;;13.35;5.97;;;;;;;;;;4974101;28;20047;-79
2020/12/17 07:37:40;;;;;;;12.88;6.13;;;;;;;;;;4987581;28;20034;-79
2020/12/17 07:40:27;;;;;;;14.70;6.55;;;;;;;;;;4991180;28;20058;-79
2020/12/17 07:42:59;;;;;;;17.80;6.93;;;;;;;;;;4987616;28;20113;-78
2020/12/17 07:45:38;;;;;;;14.88;7.35;;;;;;;;;;4991576;28;20387;-79
2020/12/17 07:48:23;;;;;;;22.55;8.85;;;;;;;;;;4991774;28;20042;-79
2020/12/17 07:50:50;;;;;;;20.60;9.13;;;;;;;;;;4992962;28;20039;-79
2020/12/17 07:53:24;;;;;;;21.80;10.02;;;;;;;;;;4983952;28;20046;-78
2020/12/17 07:55:53;;;;;;;24.63;10.05;;;;;;;;;;4994284;28;20522;-79
2020/12/17 07:58:19;;;;;;;28.77;10.85;;;;;;;;;;4976397;28;20554;-80
2020/12/17 08:00:46;;;;;;;22.90;9.20;;;;;;;;;;4976260;28;20053;-80
2020/12/17 08:03:12;;;;;;;21.23;10.10;;;;;;;;;;4993294;28;20050;-79
2020/12/17 08:05:38;;;;;;;27.20;10.90;;;;;;;;;;4992090;28;20053;-79
2020/12/17 08:08:05;;;;;;;25.17;11.45;;;;;;;;;;5008754;28;20050;-79
2020/12/17 08:10:38;;;;;;;27.35;10.82;;;;;;;;;;4994741;28;20046;-80
2020/12/17 08:13:05;;;;;;;22.92;8.63;;;;;;;;;;5008959;28;20561;-80
2020/12/17 08:15:31;;;;;;;20.52;8.82;;;;;;;;;;4984386;28;20034;-79
2020/12/17 08:17:57;;;;;;;19.58;9.10;;;;;;;;;;4962771;28;20351;-79
2020/12/17 08:20:27;;;;;;;23.92;9.48;;;;;;;;;;4994334;28;20046;-80
2020/12/17 08:22:53;;;;;;;20.63;9.63;;;;;;;;;;4993665;28;20078;-80
2020/12/17 08:25:20;;;;;;;20.70;9.15;;;;;;;;;;4976743;28;20133;-79
2020/12/17 08:27:46;;;;;;;22.77;9.43;;;;;;;;;;4974680;28;20050;-79
2020/12/17 08:30:13;;;;;;;21.65;10.90;;;;;;;;;;4975590;28;20050;-79
2020/12/17 08:32:46;;;;;;;31.35;13.32;;;;;;;;;;4992622;28;20072;-80
2020/12/17 08:35:17;;;;;;;26.52;11.05;;;;;;;;;;4974369;28;20477;-80
2020/12/17 08:37:44;;;;;;;20.95;9.30;;;;;;;;;;4991779;28;20072;-79
2020/12/17 08:40:11;;;;;;;22.05;10.38;;;;;;;;;;4959293;28;20405;-80
2020/12/17 08:42:40;;;;;;;20.30;9.70;;;;;;;;;;4991963;28;20134;-78
2020/12/17 08:45:08;;;;;;;18.95;9.07;;;;;;;;;;4981696;28;20042;-79
2020/12/17 08:47:41;;;;;;;20.33;9.30;;;;;;;;;;4992779;28;20420;-80
2020/12/17 08:50:08;;;;;;;24.95;9.23;;;;;;;;;;4994099;28;20046;-80
2020/12/17 08:52:35;;;;;;;21.25;9.60;;;;;;;;;;4977030;28;20054;-81
2020/12/17 08:55:03;;;;;;;23.75;9.88;;;;;;;;;;4993845;28;20121;-79
2020/12/17 08:57:32;;;;;;;23.10;10.60;;;;;;;;;;4993156;28;20046;-81
2020/12/17 08:59:58;;;;;;;22.20;9.57;;;;;;;;;;4976795;28;20145;-80
2020/12/17 09:02:28;;;;;;;21.63;9.38;;;;;;;;;;4994073;28;20057;-78
2020/12/17 09:04:59;;;;;;;20.33;9.23;;;;;;;;;;4975898;28;20498;-80
2020/12/17 09:07:26;;;;;;;20.70;9.77;;;;;;;;;;4975496;28;20417;-79
2020/12/17 09:09:53;;;;;;;23.90;10.13;;;;;;;;;;4992355;28;20054;-79
2020/12/17 09:12:28;;;;;;;21.80;10.40;;;;;;;;;;4960200;28;20042;-80
2020/12/17 09:14:55;;;;;;;24.40;10.43;;;;;;;;;;4959374;28;20046;-80
2020/12/17 09:17:21;;;;;;;22.00;9.63;;;;;;;;;;4993117;28;20053;-80
2020/12/17 09:19:48;;;;;;;22.15;10.18;;;;;;;;;;4993867;28;20038;-79
2020/12/17 09:22:19;;;;;;;18.83;9.57;;;;;;;;;;4993179;28;20053;-80
2020/12/17 09:24:49;;;;;;;18.25;9.00;;;;;;;;;;4977024;28;20046;-80
2020/12/17 09:27:23;;;;;;;15.73;9.05;;;;;;;;;;4975347;28;20046;-80
2020/12/17 09:30:09;;;;;;;17.05;8.85;;;;;;;;;;4977860;28;20499;-79
2020/12/17 09:32:37;;;;;;;18.73;9.00;;;;;;;;;;4945410;28;20102;-80
2020/12/17 09:35:05;;;;;;;21.65;8.75;;;;;;;;;;4967166;28;20061;-80
2020/12/17 09:37:32;;;;;;;19.52;8.88;;;;;;;;;;4991699;28;20486;-80
2020/12/17 09:40:02;;;;;;;22.85;9.07;;;;;;;;;;4980653;28;20072;-79
2020/12/17 09:42:28;;;;;;;22.75;9.20;;;;;;;;;;4978390;28;20046;-79
2020/12/17 09:44:54;;;;;;;19.80;9.20;;;;;;;;;;4995459;28;20105;-83
2020/12/17 09:47:34;;;;;;;18.90;9.30;;;;;;;;;;4966843;28;20287;-83
2020/12/17 09:50:26;;;;;;;22.65;9.25;;;;;;;;;;4968068;28;20053;-80
2020/12/17 09:52:52;;;;;;;19.98;8.80;;;;;;;;;;5011074;28;20061;-82
2020/12/17 09:55:18;;;;;;;18.95;9.05;;;;;;;;;;4990912;28;20039;-82
2020/12/17 09:57:45;;;;;;;16.95;9.25;;;;;;;;;;4959044;28;20130;-83
2020/12/17 10:00:13;;;;;;;24.80;9.13;;;;;;;;;;4982215;28;20087;-78
2020/12/17 10:02:40;;;;;;;18.98;8.45;;;;;;;;;;4977253;28;20046;-80
2020/12/17 10:05:07;;;;;;;20.23;9.50;;;;;;;;;;4976185;28;20058;-82
2020/12/17 10:07:36;;;;;;;27.48;9.90;;;;;;;;;;4977635;28;20060;-79
2020/12/17 10:10:04;;;;;;;20.20;9.32;;;;;;;;;;4979562;28;20115;-80
2020/12/17 10:12:40;;;;;;;25.38;9.70;;;;;;;;;;4982357;28;20038;-78
2020/12/17 10:15:08;;;;;;;21.63;9.52;;;;;;;;;;4997052;28;20064;-78
2020/12/17 10:17:34;;;;;;;18.95;9.48;;;;;;;;;;4997600;28;20050;-80
2020/12/17 10:20:02;;;;;;;20.20;10.05;;;;;;;;;;4963328;28;20145;-84
2020/12/17 10:22:38;;;;;;;23.70;10.30;;;;;;;;;;4996046;28;20465;-83
2020/12/17 10:25:04;;;;;;;18.60;9.10;;;;;;;;;;4982356;28;20050;-80
2020/12/17 10:27:31;;;;;;;19.90;8.93;;;;;;;;;;4999569;28;20042;-83
2020/12/17 10:29:57;;;;;;;21.40;8.63;;;;;;;;;;4984593;28;20112;-82
2020/12/17 10:32:24;;;;;;;21.67;8.95;;;;;;;;;;5000668;28;20097;-83
2020/12/17 10:34:50;;;;;;;17.98;8.80;;;;;;;;;;4977880;28;20053;-82
2020/12/17 10:37:17;;;;;;;21.42;8.82;;;;;;;;;;4953436;28;20042;-82
2020/12/17 10:39:44;;;;;;;17.63;8.50;;;;;;;;;;4973487;28;20038;-81
2020/12/17 10:42:11;;;;;;;16.15;8.15;;;;;;;;;;4970785;28;20701;-83
2020/12/17 10:44:38;;;;;;;17.13;8.55;;;;;;;;;;4979648;28;20502;-81
2020/12/17 10:47:06;;;;;;;19.17;8.90;;;;;;;;;;4962238;28;20334;-81
2020/12/17 10:49:36;;;;;;;19.10;8.60;;;;;;;;;;4976616;28;20121;-81
2020/12/17 10:52:02;;;;;;;23.42;10.00;;;;;;;;;;4984073;28;20047;-83
2020/12/17 10:54:28;;;;;;;23.55;10.00;;;;;;;;;;4989293;28;20098;-81
2020/12/17 10:56:54;;;;;;;21.08;8.98;;;;;;;;;;5003694;28;20054;-83
2020/12/17 10:59:21;;;;;;;20.00;8.68;;;;;;;;;;4993002;28;20061;-81
2020/12/17 11:01:48;;;;;;;17.35;6.47;;;;;;;;;;5009811;28;20042;-80
2020/12/17 11:04:16;;;;;;;11.63;5.45;;;;;;;;;;5000626;28;20045;-79
2020/12/17 11:06:44;;;;;;;12.70;6.60;;;;;;;;;;5017014;28;20419;-84
2020/12/17 11:09:10;;;;;;;13.07;6.78;;;;;;;;;;4984522;28;20046;-80
2020/12/17 11:11:38;;;;;;;14.80;6.68;;;;;;;;;;4985381;28;20065;-80
2020/12/17 11:14:05;;;;;;;14.90;6.78;;;;;;;;;;5000478;28;20100;-81
2020/12/17 11:16:31;;;;;;;13.82;6.88;;;;;;;;;;4985651;28;20048;-81
2020/12/17 11:19:06;;;;;;;16.85;7.22;;;;;;;;;;5001603;28;20042;-81
2020/12/17 11:21:33;;;;;;;14.23;7.45;;;;;;;;;;4984484;28;20050;-81
2020/12/17 11:24:01;;;;;;;14.80;7.68;;;;;;;;;;5000040;28;20042;-82
2020/12/17 11:26:28;;;;;;;22.40;8.20;;;;;;;;;;4976533;28;20065;-80
2020/12/17 11:28:58;;;;;;;16.85;7.32;;;;;;;;;;4953627;28;20176;-82
2020/12/17 11:31:25;;;;;;;15.77;7.35;;;;;;;;;;4971737;28;20434;-85
2020/12/17 11:33:52;;;;;;;19.23;8.05;;;;;;;;;;4969956;28;20065;-83
2020/12/17 11:36:19;;;;;;;15.80;7.18;;;;;;;;;;4954921;28;20410;-81
2020/12/17 11:38:45;;;;;;;13.38;7.22;;;;;;;;;;4973163;28;20112;-83
2020/12/17 11:41:12;;;;;;;13.73;7.10;;;;;;;;;;4933145;28;20254;-83
2020/12/17 11:43:39;;;;;;;7.93;4.38;;;;;;;;;;4978302;28;20042;-82
2020/12/17 11:46:05;;;;;;;7.30;4.40;;;;;;;;;;4982970;28;20064;-81
2020/12/17 11:48:32;;;;;;;8.15;4.63;;;;;;;;;;5003899;28;20092;-82
2020/12/17 11:50:58;;;;;;;8.73;4.60;;;;;;;;;;4966349;28;20057;-82
2020/12/17 11:53:26;;;;;;;10.07;4.45;;;;;;;;;;4975518;28;20050;-81
2020/12/17 11:55:53;;;;;;;9.15;5.00;;;;;;;;;;4959657;28;20054;-81
2020/12/17 11:58:20;;;;;;;8.95;5.80;;;;;;;;;;4927867;28;20070;-81
2020/12/17 12:00:47;;;;;;;12.18;5.85;;;;;;;;;;4976886;28;20114;-83
2020/12/17 12:03:13;;;;;;;9.63;5.57;;;;;;;;;;4979190;28;20054;-81
2020/12/17 12:05:43;;;;;;;12.43;6.28;;;;;;;;;;4964892;28;20046;-82
2020/12/17 12:08:11;;;;;;;11.60;6.30;;;;;;;;;;4978958;28;20053;-81
2020/12/17 12:10:38;;;;;;;15.27;6.60;;;;;;;;;;4981074;28;20061;-83
2020/12/17 12:13:04;;;;;;;10.55;6.25;;;;;;;;;;4965460;28;20124;-83
2020/12/17 12:15:34;;;;;;;12.38;5.35;;;;;;;;;;4977063;28;20066;-81
2020/12/17 12:18:06;;;;;;;8.60;4.65;;;;;;;;;;4983849;28;20109;-81
2020/12/17 12:20:34;;;;;;;8.75;4.05;;;;;;;;;;4996630;28;20050;-81
2020/12/17 12:23:01;;;;;;;11.70;4.28;;;;;;;;;;4995263;28;20069;-78
2020/12/17 12:25:27;;;;;;;9.00;4.55;;;;;;;;;;4961681;28;20137;-77
2020/12/17 12:27:54;;;;;;;8.82;4.32;;;;;;;;;;4991897;28;20338;-79
2020/12/17 12:30:23;;;;;;;11.10;4.60;;;;;;;;;;4976684;28;20061;-81
2020/12/17 12:32:49;;;;;;;9.07;4.20;;;;;;;;;;4976541;28;20132;-80
2020/12/17 12:35:15;;;;;;;9.20;4.75;;;;;;;;;;4993254;28;20035;-80
2020/12/17 12:37:42;;;;;;;8.73;4.40;;;;;;;;;;4974579;28;20038;-82
2020/12/17 12:40:09;;;;;;;10.02;4.70;;;;;;;;;;4944453;28;20084;-81
2020/12/17 12:42:35;;;;;;;10.75;4.70;;;;;;;;;;4959835;28;20475;-79
2020/12/17 12:45:02;;;;;;;9.13;4.30;;;;;;;;;;4993216;28;20046;-77
2020/12/17 12:47:31;;;;;;;11.77;4.57;;;;;;;;;;4958971;28;20042;-80
2020/12/17 12:49:57;;;;;;;11.70;4.18;;;;;;;;;;4961275;28;20049;-81
2020/12/17 12:52:24;;;;;;;8.18;4.50;;;;;;;;;;4994014;28;20046;-81
2020/12/17 12:54:51;;;;;;;11.02;4.60;;;;;;;;;;4977265;28;20043;-80
2020/12/17 12:57:18;;;;;;;10.00;4.50;;;;;;;;;;4974633;28;20046;-80
2020/12/17 12:59:44;;;;;;;8.25;4.13;;;;;;;;;;4983394;28;20079;-76
2020/12/17 13:02:12;;;;;;;9.82;4.20;;;;;;;;;;4994225;28;20045;-80
2020/12/17 13:04:39;;;;;;;11.20;3.70;;;;;;;;;;4977215;28;20061;-79
2020/12/17 13:07:05;;;;;;;12.13;4.18;;;;;;;;;;4993059;28;20129;-80
2020/12/17 13:09:34;;;;;;;7.93;4.30;;;;;;;;;;4961052;28;20142;-81
2020/12/17 13:12:00;;;;;;;8.77;3.83;;;;;;;;;;4960510;28;20050;-80
2020/12/17 13:14:27;;;;;;;6.97;3.63;;;;;;;;;;4993799;28;20462;-80
2020/12/17 13:16:54;;;;;;;8.73;4.25;;;;;;;;;;4959922;28;20105;-80
2020/12/17 13:19:21;;;;;;;12.07;4.43;;;;;;;;;;4960331;28;20481;-79
2020/12/17 13:21:47;;;;;;;7.95;3.85;;;;;;;;;;4959356;28;20038;-80
2020/12/17 13:24:14;;;;;;;8.82;4.10;;;;;;;;;;4993550;28;20046;-80
2020/12/17 13:26:41;;;;;;;10.30;4.07;;;;;;;;;;4959933;28;20061;-79
2020/12/17 13:29:08;;;;;;;10.38;4.20;;;;;;;;;;4959775;28;20383;-81
2020/12/17 13:31:36;;;;;;;10.30;4.30;;;;;;;;;;4975592;28;20054;-80
2020/12/17 13:34:02;;;;;;;10.93;3.90;;;;;;;;;;4943744;28;20046;-80
2020/12/17 13:36:28;;;;;;;6.03;3.58;;;;;;;;;;4975018;28;20039;-79
2020/12/17 13:38:54;;;;;;;8.40;3.50;;;;;;;;;;4959336;28;20056;-82
2020/12/17 13:41:21;;;;;;;6.72;3.53;;;;;;;;;;4992274;28;20133;-78
2020/12/17 13:43:48;;;;;;;10.20;3.40;;;;;;;;;;4992033;28;20051;-80
2020/12/17 13:46:17;;;;;;;7.60;3.45;;;;;;;;;;4958981;28;20058;-81
2020/12/17 13:48:43;;;;;;;6.85;3.20;;;;;;;;;;4977117;28;20054;-80
2020/12/17 13:51:17;;;;;;;9.70;3.83;;;;;;;;;;4991800;28;20042;-81
2020/12/17 13:53:44;;;;;;;7.82;4.18;;;;;;;;;;4981013;28;20048;-80
2020/12/17 13:56:10;;;;;;;9.05;3.60;;;;;;;;;;4974570;28;20353;-81
2020/12/17 13:58:37;;;;;;;9.05;3.88;;;;;;;;;;4988366;28;20223;-82
2020/12/17 14:01:03;;;;;;;9.50;4.10;;;;;;;;;;4973435;28;20046;-80
2020/12/17 14:03:30;;;;;;;10.23;4.80;;;;;;;;;;4993035;28;20053;-79
2020/12/17 14:05:56;;;;;;;11.55;4.40;;;;;;;;;;4975513;28;20057;-80
2020/12/17 14:08:25;;;;;;;12.10;4.85;;;;;;;;;;4960624;28;20133;-79
2020/12/17 14:10:51;;;;;;;8.02;4.55;;;;;;;;;;4986247;28;20149;-81
2020/12/17 14:13:17;;;;;;;8.68;4.32;;;;;;;;;;4993368;28;20498;-80
2020/12/17 14:15:43;;;;;;;9.05;5.03;;;;;;;;;;4975639;28;20301;-80
2020/12/17 14:18:09;;;;;;;11.50;4.60;;;;;;;;;;4974107;28;20096;-80
2020/12/17 14:20:36;;;;;;;11.25;5.63;;;;;;;;;;4975323;28;20190;-79
2020/12/17 14:23:03;;;;;;;11.07;5.30;;;;;;;;;;4973749;28;20564;-80
2020/12/17 14:25:31;;;;;;;10.63;4.80;;;;;;;;;;4990888;28;20458;-80
2020/12/17 14:27:59;;;;;;;10.68;5.18;;;;;;;;;;4990821;28;20355;-79
2020/12/17 14:30:26;;;;;;;11.48;5.47;;;;;;;;;;4976995;28;20109;-81
2020/12/17 14:32:53;;;;;;;11.05;5.35;;;;;;;;;;4994095;28;20582;-79
2020/12/17 14:35:21;;;;;;;9.50;5.10;;;;;;;;;;4976934;28;20150;-80